Mc Call Municipal Airport
KMYL : now visible

Airfield :











YOU CAN JOIN US ON...

 
LOGIN :

Register | Disclaimer

   EN    FR    IT 

 









Legend :    VFR   Marginal VFR   IFR   Intensive IFR   Very Intensive IFR
Visi :
Ceiling :
>= 8 km
>= 3000ft
5 to 8 km
1000 to 3000 ft
1500m to 5 km
500 to 1000 ft
800 to 1500m
200 to 500 ft
< 800m
< 200 ft
Symbols :   Thunderstorms  Fog  Heavy snow  Heavy precipitations  Wind > 20 kt






- Airport Elevation : 5024 ft


KMYL - Mc Call Municipal

CURRENT METAR :
  • 211251Z AUTO 00000KT 10SM OVC020 01/M01 A3012 RMK AO2 SLP217 T00111011

EXPIRED METARs :
  • 211219Z AUTO 00000KT 10SM FEW001 OVC019 01/M01 A3011 RMK AO2 T00061011
  • 211151Z AUTO 00000KT 10SM OVC019 01/M01 A3010 RMK AO2 SLP214 60001 70004 T00061011 10011 20000 53012
  • 211051Z AUTO 00000KT 10SM OVC018 01/M01 A3008 RMK AO2 SLP204 T00061011

TAF KMYL
Valid from the 21 at 12:00 until the 22 at 12:00 UTC


211123Z 2112/2212 VRB03KT P6SM VCSH OVC015
FM212100 22006KT 6SM -SHRASN BR BKN025 OVC040
FM220500 VRB03KT P6SM -SHRA OVC015



MET'MAP, your aeronautical weather chart ! - Copyright ORBIFLY December 2007 - Disclaimer

ORBIFLY MET'MAP TEAM :

Programming & Development : Alexandra Zaïnal
Concept & Development : Baudouin d'Aumeries
Co-Development & Prog : Marc-Olivier Méhu
Technical & hardware support : Manuel Goepfert

Contact : metmap@orbifly.com




SOURCES & CREDITS :

   NOAA       Earth
Advisory